Time;durP1;ratioP1;P1;durP2;ratioP2;P2;SDS_P1;SDS_P2;PMS_P1;PMS_P2;Temp;Humidity;BMP_temperature;BMP_pressure;BME280_temperature;BME280_humidity;BME280_pressure;Samples;Min_cycle;Max_cycle;Signal;HPM_P1;HPM_P2
2020/12/09 00:01:54;;;;;;;4.37;3.37;;;22.50;33.30;;;;;;5034400;28;20386;-60
2020/12/09 00:04:21;;;;;;;4.35;3.50;;;22.50;33.50;;;;;;5033823;28;20395;-61
2020/12/09 00:06:48;;;;;;;4.20;3.55;;;22.40;33.60;;;;;;5034141;28;20444;-60
2020/12/09 00:09:16;;;;;;;4.03;3.63;;;22.40;33.50;;;;;;5033627;28;20407;-60
2020/12/09 00:11:42;;;;;;;4.03;3.45;;;22.40;33.60;;;;;;5034340;28;20387;-60
2020/12/09 00:14:11;;;;;;;4.38;3.75;;;22.40;33.50;;;;;;5034130;28;20453;-62
2020/12/09 00:16:38;;;;;;;3.40;3.10;;;22.40;33.70;;;;;;5033830;28;20395;-60
2020/12/09 00:19:05;;;;;;;4.00;3.30;;;22.40;33.60;;;;;;5033366;28;20395;-60
2020/12/09 00:21:32;;;;;;;3.80;3.40;;;22.40;34.30;;;;;;5033502;28;20379;-60
2020/12/09 00:23:58;;;;;;;3.87;3.47;;;22.30;33.70;;;;;;5033917;28;20414;-60
2020/12/09 00:26:25;;;;;;;3.97;3.35;;;22.40;33.70;;;;;;5033973;28;20398;-60
2020/12/09 00:28:52;;;;;;;3.65;3.30;;;22.30;33.70;;;;;;5033824;28;20415;-60
2020/12/09 00:31:21;;;;;;;3.90;3.47;;;22.30;34.20;;;;;;5033186;28;20438;-60
2020/12/09 00:33:47;;;;;;;4.05;3.40;;;22.30;33.60;;;;;;5033427;28;20419;-60
2020/12/09 00:36:17;;;;;;;3.95;3.55;;;22.30;33.60;;;;;;5033182;28;20383;-61
2020/12/09 00:38:47;;;;;;;3.92;3.53;;;22.30;33.70;;;;;;5033749;28;20806;-60
2020/12/09 00:41:17;;;;;;;3.72;3.25;;;22.30;33.60;;;;;;5033572;28;20870;-60
2020/12/09 00:43:43;;;;;;;4.03;3.40;;;22.30;33.60;;;;;;5033105;28;20770;-60
2020/12/09 00:46:17;;;;;;;3.95;3.20;;;22.30;33.60;;;;;;5033426;28;20470;-60
2020/12/09 00:48:43;;;;;;;3.50;3.17;;;22.20;33.50;;;;;;5032973;28;21021;-60
2020/12/09 00:51:16;;;;;;;4.32;3.58;;;22.20;33.50;;;;;;5032926;28;20395;-69
2020/12/09 00:53:42;;;;;;;3.55;3.25;;;22.20;33.40;;;;;;5033259;28;20516;-60
2020/12/09 00:56:09;;;;;;;3.30;2.95;;;22.20;33.50;;;;;;5033365;28;20887;-61
2020/12/09 00:58:35;;;;;;;3.83;3.42;;;22.20;33.50;;;;;;5033343;28;20888;-60
2020/12/09 01:01:02;;;;;;;3.90;3.28;;;22.20;33.50;;;;;;5032896;28;20387;-60
2020/12/09 01:03:28;;;;;;;3.80;3.40;;;22.20;33.50;;;;;;5032524;28;20403;-60
2020/12/09 01:05:54;;;;;;;3.90;3.30;;;22.20;33.50;;;;;;5033175;28;20474;-60
2020/12/09 01:08:20;;;;;;;4.07;3.40;;;22.20;33.50;;;;;;5033107;28;20383;-60
2020/12/09 01:10:45;;;;;;;3.42;3.10;;;22.20;33.40;;;;;;5033161;28;20396;-60
2020/12/09 01:13:11;;;;;;;3.50;3.20;;;22.10;33.40;;;;;;5032665;28;20453;-60
2020/12/09 01:15:37;;;;;;;3.38;3.08;;;22.10;33.30;;;;;;5033004;28;20790;-60
2020/12/09 01:18:02;;;;;;;3.53;3.10;;;22.10;33.40;;;;;;5032476;28;20863;-61
2020/12/09 01:20:28;;;;;;;3.40;3.03;;;22.10;33.30;;;;;;5032445;28;20399;-60
2020/12/09 01:22:53;;;;;;;3.92;3.13;;;22.10;33.30;;;;;;5032709;28;20747;-60
2020/12/09 01:25:19;;;;;;;3.50;3.20;;;22.10;33.30;;;;;;5032068;28;20383;-60
2020/12/09 01:27:45;;;;;;;3.72;3.30;;;22.10;33.30;;;;;;5032849;28;20391;-60
2020/12/09 01:30:10;;;;;;;4.00;3.50;;;22.10;33.30;;;;;;5031033;28;20422;-60
2020/12/09 01:32:36;;;;;;;3.55;3.20;;;22.10;33.20;;;;;;5032774;28;20418;-60
2020/12/09 01:35:02;;;;;;;3.57;3.27;;;22.10;33.30;;;;;;5032421;28;20395;-61
2020/12/09 01:37:28;;;;;;;3.83;3.30;;;22.00;33.20;;;;;;5032267;28;20394;-60
2020/12/09 01:39:53;;;;;;;4.05;3.22;;;22.00;33.20;;;;;;5032429;28;20387;-60
2020/12/09 01:42:19;;;;;;;3.53;3.23;;;22.00;33.30;;;;;;5032606;28;20379;-60
2020/12/09 01:44:45;;;;;;;3.67;3.17;;;22.00;33.30;;;;;;5031280;28;20458;-60
2020/12/09 01:47:10;;;;;;;3.53;3.10;;;22.00;33.30;;;;;;5032469;28;20742;-60
2020/12/09 01:49:37;;;;;;;3.63;3.17;;;22.00;33.20;;;;;;5030558;28;20403;-60
2020/12/09 01:52:04;;;;;;;3.33;3.00;;;22.00;33.30;;;;;;5031808;28;20870;-60
2020/12/09 01:54:30;;;;;;;3.72;3.03;;;22.00;33.20;;;;;;5032084;28;20394;-60
2020/12/09 01:57:25;;;;;;;3.33;2.95;;;22.00;33.20;;;;;;5032060;28;20486;-60
2020/12/09 01:59:51;;;;;;;3.60;3.30;;;22.00;33.20;;;;;;5031582;28;20406;-60
2020/12/09 02:02:17;;;;;;;3.43;3.10;;;21.90;33.20;;;;;;5032257;28;20391;-60
2020/12/09 02:04:43;;;;;;;3.38;3.08;;;21.90;33.20;;;;;;5031958;28;20383;-60
2020/12/09 02:07:09;;;;;;;3.95;3.13;;;21.90;33.20;;;;;;5032164;28;20395;-60
2020/12/09 02:09:34;;;;;;;3.25;2.95;;;21.90;33.10;;;;;;5031358;28;20391;-60
2020/12/09 02:12:00;;;;;;;3.77;3.37;;;21.90;33.10;;;;;;5031995;28;20411;-60
2020/12/09 02:14:27;;;;;;;3.40;3.03;;;21.90;33.10;;;;;;5031967;28;20394;-60
2020/12/09 02:16:58;;;;;;;3.57;3.00;;;21.90;33.10;;;;;;5032190;28;20467;-60
2020/12/09 02:19:24;;;;;;;3.80;3.08;;;21.90;33.20;;;;;;5029823;28;20406;-60
2020/12/09 02:21:50;;;;;;;3.70;3.25;;;21.90;33.20;;;;;;5031381;28;20868;-60
2020/12/09 02:24:16;;;;;;;3.60;3.07;;;21.90;33.10;;;;;;5031441;28;20394;-60
2020/12/09 02:26:44;;;;;;;3.60;3.03;;;21.90;33.10;;;;;;5031790;28;20390;-60
2020/12/09 02:29:10;;;;;;;3.30;3.00;;;21.90;33.20;;;;;;5031450;28;20721;-60
2020/12/09 02:31:35;;;;;;;3.73;3.10;;;21.80;33.10;;;;;;5031291;28;20395;-60
2020/12/09 02:34:01;;;;;;;3.58;3.10;;;21.90;33.10;;;;;;5031742;28;21009;-60
2020/12/09 02:36:27;;;;;;;3.72;3.17;;;21.90;33.10;;;;;;5031872;28;20398;-60
2020/12/09 02:38:53;;;;;;;3.78;3.30;;;21.90;33.10;;;;;;5030456;28;20391;-60
2020/12/09 02:41:19;;;;;;;3.30;3.00;;;21.90;33.00;;;;;;5031248;28;20440;-60
2020/12/09 02:43:45;;;;;;;4.95;3.38;;;21.90;33.00;;;;;;5031407;28;20399;-60
2020/12/09 02:46:10;;;;;;;3.60;3.03;;;21.80;32.90;;;;;;5030714;28;20394;-60
2020/12/09 02:48:36;;;;;;;3.58;3.13;;;21.90;33.00;;;;;;5031476;28;20403;-60
2020/12/09 02:51:02;;;;;;;3.30;2.97;;;21.80;32.90;;;;;;5031116;28;20413;-60
2020/12/09 02:53:27;;;;;;;3.33;3.03;;;21.80;32.80;;;;;;5030970;28;20415;-60
2020/12/09 02:55:53;;;;;;;3.53;3.10;;;21.80;32.80;;;;;;5031137;28;20797;-60
2020/12/09 02:58:19;;;;;;;3.53;3.22;;;21.80;32.90;;;;;;5031429;28;20395;-60
2020/12/09 03:00:44;;;;;;;3.53;3.10;;;21.80;32.90;;;;;;5031336;28;20437;-60
2020/12/09 03:03:10;;;;;;;3.95;3.35;;;21.80;32.90;;;;;;5031395;28;20744;-60
2020/12/09 03:05:35;;;;;;;3.57;3.20;;;21.80;32.90;;;;;;5030683;28;20383;-60
2020/12/09 03:08:01;;;;;;;3.90;3.28;;;21.80;32.90;;;;;;5030765;28;20398;-60
2020/12/09 03:10:27;;;;;;;4.00;3.40;;;21.80;32.90;;;;;;5031299;28;20904;-60
2020/12/09 03:12:53;;;;;;;3.63;2.95;;;21.80;32.90;;;;;;5031201;28;20501;-60
2020/12/09 03:15:18;;;;;;;3.40;3.00;;;21.80;32.90;;;;;;5030953;28;20478;-60
2020/12/09 03:17:44;;;;;;;3.90;3.20;;;21.70;32.80;;;;;;5031269;28;20874;-60
2020/12/09 03:20:09;;;;;;;3.40;2.97;;;21.70;32.90;;;;;;5031090;28;20399;-60
2020/12/09 03:22:35;;;;;;;4.18;3.17;;;21.70;32.80;;;;;;5031097;28;20391;-60
2020/12/09 03:25:01;;;;;;;3.20;2.80;;;21.70;32.80;;;;;;5031147;28;20387;-60
2020/12/09 03:27:26;;;;;;;3.63;3.00;;;21.70;32.80;;;;;;5030739;28;20394;-60
2020/12/09 03:29:52;;;;;;;3.50;3.20;;;21.70;33.40;;;;;;5030890;28;20407;-60
2020/12/09 03:32:19;;;;;;;3.38;2.83;;;21.70;32.80;;;;;;5031113;28;20481;-60
2020/12/09 03:34:44;;;;;;;3.70;3.17;;;21.70;32.80;;;;;;5031178;28;20398;-60
2020/12/09 03:37:10;;;;;;;3.28;2.97;;;21.70;32.80;;;;;;5030850;28;20845;-60
2020/12/09 03:39:35;;;;;;;3.50;3.00;;;21.70;32.80;;;;;;5029148;28;20402;-60
2020/12/09 03:42:01;;;;;;;3.25;2.90;;;21.70;32.80;;;;;;5030834;28;20401;-60
2020/12/09 03:44:27;;;;;;;3.50;2.93;;;21.70;32.80;;;;;;5031101;28;20851;-60
2020/12/09 03:46:56;;;;;;;3.47;2.97;;;21.70;32.80;;;;;;5030851;28;20391;-60
2020/12/09 03:49:25;;;;;;;3.38;3.00;;;21.70;32.80;;;;;;5030782;28;20425;-60
2020/12/09 03:51:51;;;;;;;3.40;3.00;;;21.60;32.80;;;;;;5030897;28;20845;-60
2020/12/09 03:54:17;;;;;;;3.28;2.90;;;21.70;32.90;;;;;;5030787;28;20430;-60
2020/12/09 03:56:43;;;;;;;3.23;2.93;;;21.70;32.80;;;;;;5030753;28;20440;-60
2020/12/09 03:59:08;;;;;;;3.20;2.90;;;21.70;32.80;;;;;;5034104;28;20399;-60
2020/12/09 04:01:34;;;;;;;3.73;3.10;;;21.70;32.90;;;;;;4993699;28;20396;-60
2020/12/09 04:04:00;;;;;;;4.80;3.10;;;21.80;32.80;;;;;;5047508;28;20383;-59
2020/12/09 04:06:26;;;;;;;4.33;2.90;;;21.80;32.80;;;;;;5034430;28;20805;-60
2020/12/09 04:08:51;;;;;;;4.95;3.15;;;21.80;33.30;;;;;;5034557;28;20469;-60
2020/12/09 04:11:17;;;;;;;11.00;3.60;;;21.80;33.20;;;;;;5033702;28;20417;-59
2020/12/09 04:13:43;;;;;;;6.17;3.60;;;21.90;33.50;;;;;;5033510;28;20418;-60
2020/12/09 04:16:09;;;;;;;8.35;3.67;;;21.90;33.60;;;;;;5033615;28;20751;-59
2020/12/09 04:18:34;;;;;;;5.97;3.60;;;21.90;33.70;;;;;;5033666;28;20805;-60
2020/12/09 04:21:00;;;;;;;6.03;3.45;;;21.90;34.00;;;;;;5033426;28;20482;-60
2020/12/09 04:23:26;;;;;;;8.63;3.30;;;21.90;33.60;;;;;;5033108;28;20601;-60
2020/12/09 04:25:52;;;;;;;10.55;3.40;;;21.90;33.80;;;;;;5034050;28;20915;-59
2020/12/09 04:28:18;;;;;;;6.13;3.20;;;21.90;33.90;;;;;;5034056;28;20395;-60
2020/12/09 04:30:44;;;;;;;7.35;3.72;;;21.90;33.60;;;;;;5033776;28;20407;-61
2020/12/09 04:33:10;;;;;;;10.63;3.60;;;21.90;33.60;;;;;;5033760;28;20775;-61
2020/12/09 04:35:35;;;;;;;9.25;3.40;;;22.00;33.80;;;;;;5033493;28;20384;-61
2020/12/09 04:38:02;;;;;;;6.45;3.30;;;22.00;34.20;;;;;;5033836;28;20410;-61
2020/12/09 04:40:28;;;;;;;6.95;3.47;;;22.10;34.10;;;;;;5033776;28;20898;-61
2020/12/09 04:42:55;;;;;;;8.32;3.20;;;22.00;34.20;;;;;;5033775;28;20395;-61
2020/12/09 04:45:21;;;;;;;7.53;3.40;;;22.10;34.00;;;;;;5033507;28;20388;-61
2020/12/09 04:47:58;;;;;;;6.75;3.70;;;22.10;33.80;;;;;;5032669;28;21120;-61
2020/12/09 04:50:27;;;;;;;6.20;3.33;;;22.10;33.40;;;;;;5031753;28;20403;-61
2020/12/09 04:53:08;;;;;;;8.10;3.42;;;22.00;33.40;;;;;;5030436;28;20417;-61
2020/12/09 04:55:48;;;;;;;7.15;3.45;;;22.00;33.30;;;;;;5031072;28;20478;-61
2020/12/09 04:58:37;;;;;;;8.18;3.35;;;21.90;33.10;;;;;;5031278;28;20417;-62
2020/12/09 05:01:09;;;;;;;7.37;3.27;;;21.90;33.40;;;;;;5032343;28;20418;-62
2020/12/09 05:03:47;;;;;;;6.97;3.30;;;21.90;33.40;;;;;;5033026;28;20446;-61
2020/12/09 05:06:15;;;;;;;6.93;3.28;;;21.90;33.40;;;;;;5031864;28;20375;-61
2020/12/09 05:08:55;;;;;;;8.43;3.40;;;21.90;33.30;;;;;;5031474;28;20486;-61
2020/12/09 05:11:23;;;;;;;6.25;3.30;;;21.90;33.20;;;;;;5033009;28;20756;-65
2020/12/09 05:13:55;;;;;;;8.10;3.17;;;21.90;33.30;;;;;;5032868;28;20422;-61
2020/12/09 05:16:22;;;;;;;6.75;3.60;;;21.90;33.30;;;;;;5031706;28;20375;-61
2020/12/09 05:18:55;;;;;;;5.32;3.00;;;21.90;33.80;;;;;;5033061;28;20384;-61
2020/12/09 05:21:23;;;;;;;8.63;3.28;;;21.90;33.20;;;;;;5030963;28;20401;-61
2020/12/09 05:23:56;;;;;;;8.45;3.53;;;21.90;33.20;;;;;;5032573;28;20410;-62
2020/12/09 05:26:27;;;;;;;6.90;3.05;;;21.90;33.10;;;;;;5032410;28;20474;-62
2020/12/09 05:29:15;;;;;;;7.43;3.22;;;21.90;33.00;;;;;;5032822;28;20391;-62
2020/12/09 05:31:46;;;;;;;7.47;2.90;;;21.90;33.00;;;;;;5031419;28;20411;-62
2020/12/09 05:34:18;;;;;;;4.78;3.10;;;21.90;32.90;;;;;;5032500;28;20414;-63
2020/12/09 05:36:50;;;;;;;4.35;3.13;;;21.80;32.90;;;;;;5031596;28;20794;-64
2020/12/09 05:39:16;;;;;;;5.78;2.83;;;21.80;32.80;;;;;;5032517;28;20391;-62
2020/12/09 05:41:42;;;;;;;4.13;2.75;;;21.80;32.80;;;;;;5029013;28;20406;-64
2020/12/09 05:44:08;;;;;;;3.97;2.67;;;21.80;32.80;;;;;;5032387;28;20464;-62
2020/12/09 05:46:34;;;;;;;7.40;3.17;;;21.80;32.80;;;;;;5032380;28;20399;-61
2020/12/09 05:49:00;;;;;;;5.00;3.10;;;21.80;33.00;;;;;;5032428;28;20391;-62
2020/12/09 05:51:26;;;;;;;4.77;3.10;;;21.80;33.10;;;;;;5031790;28;20395;-62
2020/12/09 05:53:51;;;;;;;5.65;2.80;;;21.90;33.10;;;;;;5031969;28;20569;-61
2020/12/09 05:56:21;;;;;;;10.18;3.03;;;21.80;33.20;;;;;;5031938;28;20394;-63
2020/12/09 05:58:50;;;;;;;8.32;3.35;;;21.80;34.20;;;;;;5030513;28;20887;-62
2020/12/09 06:01:23;;;;;;;8.18;3.10;;;21.80;34.20;;;;;;5032080;28;20395;-62
2020/12/09 06:03:56;;;;;;;5.22;2.88;;;21.80;33.80;;;;;;5029402;28;20439;-62
2020/12/09 06:06:24;;;;;;;5.90;3.10;;;21.80;34.00;;;;;;5031958;28;20403;-61
2020/12/09 06:08:51;;;;;;;4.60;2.70;;;21.80;33.90;;;;;;5030451;28;20457;-61
2020/12/09 06:11:28;;;;;;;6.32;2.90;;;21.80;33.80;;;;;;5031608;28;20735;-61
2020/12/09 06:13:54;;;;;;;6.82;3.10;;;21.80;33.70;;;;;;5031818;28;20430;-62
2020/12/09 06:16:20;;;;;;;7.10;2.97;;;21.80;33.50;;;;;;5032027;28;20383;-61
2020/12/09 06:18:51;;;;;;;5.03;2.92;;;21.70;33.40;;;;;;5031962;28;20399;-61
2020/12/09 06:21:18;;;;;;;5.97;3.00;;;21.70;33.30;;;;;;5031864;28;20380;-62
2020/12/09 06:23:44;;;;;;;4.65;2.95;;;21.70;33.20;;;;;;5031542;28;20392;-62
2020/12/09 06:26:10;;;;;;;4.60;2.55;;;21.70;33.10;;;;;;5031846;28;20740;-61
2020/12/09 06:28:40;;;;;;;6.28;2.55;;;21.70;33.10;;;;;;5031947;28;20453;-62
2020/12/09 06:31:14;;;;;;;4.55;3.20;;;21.70;33.00;;;;;;5031504;28;20799;-62
2020/12/09 06:33:45;;;;;;;5.18;2.78;;;21.70;33.00;;;;;;5031289;28;20422;-61
2020/12/09 06:36:18;;;;;;;4.40;2.70;;;21.70;33.00;;;;;;5031770;28;20388;-61
2020/12/09 06:39:11;;;;;;;5.60;2.67;;;21.70;32.90;;;;;;5031904;28;20465;-62
2020/12/09 06:41:41;;;;;;;3.75;2.67;;;21.60;32.90;;;;;;5031245;28;20387;-62
2020/12/09 06:44:09;;;;;;;4.38;2.60;;;21.60;32.90;;;;;;5031601;28;20733;-62
2020/12/09 06:46:35;;;;;;;4.72;3.10;;;21.60;32.80;;;;;;5031519;28;20788;-61
2020/12/09 06:49:01;;;;;;;4.63;3.03;;;21.60;32.80;;;;;;5031581;28;20420;-62
2020/12/09 06:51:38;;;;;;;4.90;3.37;;;21.60;32.80;;;;;;5030935;28;20475;-61
2020/12/09 06:54:14;;;;;;;4.40;3.67;;;21.60;32.80;;;;;;5030941;28;20899;-61
2020/12/09 06:56:40;;;;;;;4.60;3.50;;;21.60;32.80;;;;;;5031200;28;20477;-62
2020/12/09 06:59:28;;;;;;;5.40;3.78;;;21.60;32.80;;;;;;5031442;28;20391;-62
2020/12/09 07:02:00;;;;;;;4.22;3.47;;;21.60;32.80;;;;;;5031164;28;21210;-61
2020/12/09 07:04:58;;;;;;;4.30;3.50;;;21.60;32.80;;;;;;5031304;28;20395;-61
2020/12/09 07:07:34;;;;;;;4.60;3.50;;;21.60;32.70;;;;;;5031070;28;20443;-62
2020/12/09 07:10:03;;;;;;;4.28;3.63;;;21.60;32.70;;;;;;5031297;28;20889;-62
2020/12/09 07:12:29;;;;;;;5.15;3.60;;;21.60;32.60;;;;;;5031147;28;20464;-62
2020/12/09 07:14:56;;;;;;;5.40;3.90;;;21.60;32.60;;;;;;5031287;28;20553;-61
2020/12/09 07:17:27;;;;;;;4.25;3.53;;;21.60;32.60;;;;;;5031363;28;20387;-61
2020/12/09 07:19:55;;;;;;;5.17;3.83;;;21.60;32.60;;;;;;5029547;28;20915;-61
2020/12/09 07:22:22;;;;;;;4.95;3.60;;;21.60;32.60;;;;;;5031430;28;20399;-61
2020/12/09 07:24:48;;;;;;;4.65;3.50;;;21.50;32.60;;;;;;5031139;28;20867;-61
2020/12/09 07:27:14;;;;;;;4.28;3.40;;;21.50;32.60;;;;;;5031030;28;20402;-61
2020/12/09 07:29:42;;;;;;;3.80;3.40;;;21.50;32.50;;;;;;5030540;28;20914;-61
2020/12/09 07:32:08;;;;;;;4.28;3.53;;;21.50;32.60;;;;;;5030952;28;20402;-62
2020/12/09 07:34:54;;;;;;;4.45;3.47;;;21.50;32.60;;;;;;5035185;28;20391;-61
2020/12/09 07:37:22;;;;;;;4.50;3.58;;;21.50;32.60;;;;;;5035213;28;20392;-62
2020/12/09 07:39:49;;;;;;;3.70;3.30;;;21.50;32.60;;;;;;5034778;28;20399;-61
2020/12/09 07:42:16;;;;;;;4.20;3.50;;;21.50;32.60;;;;;;5034928;28;20799;-61
2020/12/09 07:44:44;;;;;;;4.00;3.47;;;21.50;32.50;;;;;;5034956;28;20403;-62
2020/12/09 07:47:10;;;;;;;4.35;3.53;;;21.50;32.50;;;;;;5034802;28;20978;-61
2020/12/09 07:49:47;;;;;;;3.95;3.35;;;21.50;32.50;;;;;;5034486;28;20394;-61
2020/12/09 07:52:27;;;;;;;3.53;3.22;;;21.50;32.50;;;;;;5034209;28;20403;-62
2020/12/09 07:54:57;;;;;;;4.32;3.28;;;21.50;32.50;;;;;;5034928;28;20391;-62
2020/12/09 07:57:41;;;;;;;4.00;3.50;;;21.50;32.40;;;;;;5034801;28;20387;-62
2020/12/09 08:00:15;;;;;;;3.45;3.10;;;21.50;32.40;;;;;;5034518;28;20466;-61
2020/12/09 08:02:44;;;;;;;3.55;3.13;;;21.50;32.40;;;;;;5034599;28;20387;-61
2020/12/09 08:05:09;;;;;;;3.70;3.08;;;21.50;32.40;;;;;;5034492;28;20395;-61
2020/12/09 08:07:50;;;;;;;3.53;3.23;;;21.50;32.40;;;;;;5033695;28;20397;-61
2020/12/09 08:10:24;;;;;;;4.03;2.90;;;21.50;32.40;;;;;;5034462;28;20383;-63
2020/12/09 08:12:58;;;;;;;3.28;2.97;;;21.40;32.40;;;;;;5034329;28;20411;-61
2020/12/09 08:15:23;;;;;;;3.50;2.80;;;21.40;32.40;;;;;;5034394;28;20861;-61
2020/12/09 08:17:49;;;;;;;3.72;3.17;;;21.40;32.40;;;;;;5032497;28;20430;-62
2020/12/09 08:20:15;;;;;;;3.80;2.90;;;21.40;32.40;;;;;;5034046;28;20397;-61
2020/12/09 08:22:58;;;;;;;3.13;2.70;;;21.40;32.40;;;;;;5033657;28;20729;-61
2020/12/09 08:25:27;;;;;;;3.55;2.65;;;21.40;32.40;;;;;;5033986;28;20398;-61
2020/12/09 08:27:54;;;;;;;3.45;2.83;;;21.40;32.50;;;;;;5033587;28;20953;-61
2020/12/09 08:30:30;;;;;;;3.17;2.80;;;21.40;32.40;;;;;;5033547;28;20855;-61
2020/12/09 08:33:03;;;;;;;3.95;2.80;;;21.40;32.40;;;;;;5033968;28;20817;-61
2020/12/09 08:35:51;;;;;;;3.17;2.77;;;21.40;33.10;;;;;;5033930;28;20410;-61
2020/12/09 08:38:37;;;;;;;3.30;2.90;;;21.40;32.40;;;;;;5032211;28;20403;-61
2020/12/09 08:41:06;;;;;;;3.30;3.00;;;21.40;32.40;;;;;;5033949;28;20883;-61
2020/12/09 08:43:34;;;;;;;3.38;2.70;;;21.40;32.50;;;;;;5033200;28;20843;-61
2020/12/09 08:46:02;;;;;;;3.45;2.88;;;21.30;32.40;;;;;;5033131;28;20394;-62
2020/12/09 08:48:28;;;;;;;3.28;2.72;;;21.30;32.40;;;;;;5033895;28;20966;-61
2020/12/09 08:50:54;;;;;;;3.00;2.70;;;21.30;32.40;;;;;;5033744;28;20475;-62
2020/12/09 08:53:20;;;;;;;3.17;2.73;;;21.40;32.50;;;;;;5033499;28;20430;-61
2020/12/09 08:55:47;;;;;;;3.45;2.83;;;21.30;32.40;;;;;;5031834;28;20426;-62
2020/12/09 08:58:14;;;;;;;3.15;2.85;;;21.40;32.40;;;;;;5033655;28;20391;-61
2020/12/09 09:00:41;;;;;;;2.95;2.65;;;21.30;32.40;;;;;;5033697;28;20482;-61
2020/12/09 09:03:11;;;;;;;2.97;2.67;;;21.40;32.50;;;;;;5033407;28;20453;-61
2020/12/09 09:05:37;;;;;;;2.70;2.50;;;21.30;32.50;;;;;;5033273;28;20994;-61
2020/12/09 09:08:03;;;;;;;3.00;2.60;;;21.30;32.40;;;;;;5033221;28;20434;-61
2020/12/09 09:10:28;;;;;;;3.65;2.78;;;21.30;32.50;;;;;;5033436;28;20419;-61
2020/12/09 09:12:54;;;;;;;3.10;2.70;;;21.30;32.50;;;;;;5033174;28;20801;-62
2020/12/09 09:15:20;;;;;;;3.13;2.80;;;21.30;32.50;;;;;;5033341;28;20823;-61
2020/12/09 09:17:45;;;;;;;2.85;2.50;;;21.30;32.50;;;;;;5032845;28;20474;-61
2020/12/09 09:20:11;;;;;;;2.90;2.57;;;21.30;32.50;;;;;;5032954;28;20422;-62
2020/12/09 09:22:37;;;;;;;2.97;2.53;;;21.30;32.40;;;;;;5032509;28;20913;-61
2020/12/09 09:25:04;;;;;;;2.77;2.50;;;21.30;32.30;;;;;;5033095;28;20488;-62
2020/12/09 09:27:30;;;;;;;2.90;2.60;;;21.30;32.40;;;;;;5033252;28;20383;-61
2020/12/09 09:29:56;;;;;;;3.20;2.90;;;21.30;32.40;;;;;;5032219;28;20461;-61
2020/12/09 09:32:22;;;;;;;3.20;2.70;;;21.30;32.30;;;;;;5032986;28;20415;-61
2020/12/09 09:34:48;;;;;;;3.00;2.42;;;21.30;32.40;;;;;;5032901;28;20884;-61
2020/12/09 09:37:14;;;;;;;3.08;2.78;;;21.30;32.40;;;;;;5032769;28;20391;-61
2020/12/09 09:39:40;;;;;;;3.05;2.75;;;21.30;32.40;;;;;;5031379;28;20494;-61
2020/12/09 09:42:05;;;;;;;3.00;2.70;;;21.30;32.40;;;;;;5032460;28;20380;-61
2020/12/09 09:44:31;;;;;;;2.92;2.63;;;21.30;32.40;;;;;;5032781;28;20928;-61
2020/12/09 09:46:58;;;;;;;2.90;2.60;;;21.20;32.40;;;;;;5032676;28;20391;-61
2020/12/09 09:49:24;;;;;;;3.25;2.70;;;21.20;32.50;;;;;;5032517;28;20887;-62
2020/12/09 09:51:52;;;;;;;3.30;2.80;;;21.30;32.50;;;;;;5032192;28;20391;-61
2020/12/09 09:54:18;;;;;;;3.10;2.70;;;21.20;32.50;;;;;;5032607;28;20399;-61
2020/12/09 09:56:43;;;;;;;3.13;2.83;;;21.20;32.50;;;;;;5032101;28;20391;-61
2020/12/09 09:59:09;;;;;;;2.80;2.47;;;21.20;32.50;;;;;;5032516;28;20541;-61
2020/12/09 10:01:35;;;;;;;3.05;2.75;;;21.30;32.70;;;;;;5032511;28;20405;-61
2020/12/09 10:04:00;;;;;;;3.67;3.00;;;21.20;32.50;;;;;;5031743;28;20399;-61
2020/12/09 10:06:26;;;;;;;2.78;2.50;;;21.20;32.50;;;;;;5032331;28;20414;-61
2020/12/09 10:08:52;;;;;;;3.00;2.70;;;21.20;32.50;;;;;;5032358;28;20477;-61
2020/12/09 10:11:17;;;;;;;3.35;2.80;;;21.20;32.50;;;;;;5032288;28;20394;-61
2020/12/09 10:13:43;;;;;;;2.93;2.60;;;21.20;32.50;;;;;;5031740;28;20516;-61
2020/12/09 10:16:09;;;;;;;3.13;2.70;;;21.20;32.50;;;;;;5032159;28;20387;-61
2020/12/09 10:18:34;;;;;;;3.20;2.90;;;21.20;32.50;;;;;;5030948;28;20940;-61
2020/12/09 10:21:00;;;;;;;3.20;2.80;;;21.20;32.50;;;;;;5032090;28;20739;-61
2020/12/09 10:23:26;;;;;;;3.08;2.78;;;21.20;32.40;;;;;;5031944;28;20387;-61
2020/12/09 10:25:51;;;;;;;3.00;2.70;;;21.20;32.40;;;;;;5031537;28;20446;-61
2020/12/09 10:28:17;;;;;;;3.30;2.90;;;21.20;32.50;;;;;;5031949;28;20449;-61
2020/12/09 10:30:46;;;;;;;3.20;2.90;;;21.20;32.50;;;;;;5031744;28;20736;-61
2020/12/09 10:33:13;;;;;;;2.90;2.60;;;21.20;32.50;;;;;;5031665;28;20859;-61
2020/12/09 10:35:47;;;;;;;3.70;2.95;;;21.20;32.50;;;;;;5030920;28;21395;-61
2020/12/09 10:38:12;;;;;;;3.20;2.88;;;21.20;32.50;;;;;;5031805;28;20387;-61
2020/12/09 10:40:38;;;;;;;3.10;2.80;;;21.10;32.40;;;;;;5031624;28;20864;-61
2020/12/09 10:43:04;;;;;;;3.10;2.60;;;21.20;32.40;;;;;;5031718;28;20433;-61
2020/12/09 10:45:29;;;;;;;2.85;2.55;;;21.20;32.40;;;;;;5031710;28;20383;-61
2020/12/09 10:47:55;;;;;;;3.10;2.80;;;21.20;32.40;;;;;;5031352;28;20403;-61
2020/12/09 10:50:20;;;;;;;3.33;2.50;;;21.20;32.40;;;;;;5031666;28;20867;-61
2020/12/09 10:52:46;;;;;;;3.13;2.70;;;21.20;32.40;;;;;;5031450;28;20906;-61
2020/12/09 10:55:12;;;;;;;2.97;2.60;;;21.10;32.30;;;;;;5031593;28;20427;-61
2020/12/09 10:57:37;;;;;;;2.90;2.60;;;21.20;33.00;;;;;;5031472;28;20519;-61
2020/12/09 11:00:07;;;;;;;3.25;2.80;;;21.20;32.40;;;;;;5031059;28;20415;-61
2020/12/09 11:02:32;;;;;;;2.95;2.65;;;21.20;32.40;;;;;;5031516;28;20728;-61
2020/12/09 11:04:58;;;;;;;3.13;2.70;;;21.20;32.40;;;;;;5031519;28;20409;-61
2020/12/09 11:07:23;;;;;;;3.10;2.80;;;21.20;32.40;;;;;;5030600;28;20395;-61
2020/12/09 11:09:49;;;;;;;3.30;3.00;;;21.20;32.40;;;;;;5030983;28;20510;-61
2020/12/09 11:12:15;;;;;;;3.00;2.70;;;21.10;32.40;;;;;;5031240;28;20421;-61
2020/12/09 11:14:40;;;;;;;3.23;2.80;;;21.10;32.40;;;;;;5031398;28;20767;-61
2020/12/09 11:17:06;;;;;;;3.13;2.80;;;21.10;32.40;;;;;;5031148;28;20387;-61
2020/12/09 11:19:32;;;;;;;3.00;2.70;;;21.10;32.40;;;;;;5031378;28;20418;-61
2020/12/09 11:21:58;;;;;;;3.70;2.65;;;21.20;32.40;;;;;;5030823;28;20384;-61
2020/12/09 11:24:24;;;;;;;2.97;2.67;;;21.10;32.30;;;;;;5029892;28;20898;-61
2020/12/09 11:26:50;;;;;;;2.97;2.67;;;21.10;32.40;;;;;;5031277;28;20394;-61
2020/12/09 11:29:16;;;;;;;2.83;2.55;;;21.10;32.40;;;;;;5030772;28;20392;-61
2020/12/09 11:31:41;;;;;;;2.90;2.60;;;21.10;32.40;;;;;;5031032;28;20411;-62
2020/12/09 11:34:07;;;;;;;3.15;2.67;;;21.10;32.40;;;;;;5030864;28;20415;-61
2020/12/09 11:36:33;;;;;;;3.00;2.70;;;21.10;32.40;;;;;;5029618;28;20399;-61
2020/12/09 11:38:58;;;;;;;2.97;2.67;;;21.10;32.40;;;;;;5031037;28;20423;-62
2020/12/09 11:41:26;;;;;;;3.10;2.40;;;21.10;32.40;;;;;;5031019;28;20395;-61
2020/12/09 11:43:54;;;;;;;3.30;2.83;;;21.10;32.40;;;;;;5030702;28;20533;-62
2020/12/09 11:46:20;;;;;;;2.97;2.67;;;21.10;32.50;;;;;;5031049;28;20383;-61
2020/12/09 11:48:46;;;;;;;3.30;3.00;;;21.10;32.40;;;;;;5031137;28;20444;-60
2020/12/09 11:51:13;;;;;;;2.97;2.67;;;21.10;32.40;;;;;;5031066;28;20875;-61
2020/12/09 11:53:39;;;;;;;3.13;2.75;;;21.10;32.50;;;;;;5030993;28;20415;-61
2020/12/09 11:56:05;;;;;;;3.20;2.87;;;21.10;32.40;;;;;;5030303;28;20521;-61
2020/12/09 11:58:30;;;;;;;2.97;2.67;;;21.10;32.40;;;;;;5031036;28;20382;-61
2020/12/09 12:00:56;;;;;;;3.23;2.70;;;21.10;32.40;;;;;;5030767;28;20399;-61
2020/12/09 12:03:21;;;;;;;2.90;2.60;;;21.10;32.50;;;;;;5030938;28;20394;-61
2020/12/09 12:05:52;;;;;;;3.40;3.10;;;21.10;32.40;;;;;;5030659;28;20383;-62
2020/12/09 12:08:17;;;;;;;3.08;2.78;;;21.10;32.40;;;;;;5030871;28;20402;-61
2020/12/09 12:10:43;;;;;;;3.22;2.90;;;21.10;32.50;;;;;;5030701;28;20462;-61
2020/12/09 12:13:08;;;;;;;3.50;2.90;;;21.10;32.50;;;;;;5030781;28;20778;-61
2020/12/09 12:15:34;;;;;;;3.15;2.80;;;21.10;32.40;;;;;;5030857;28;20387;-61
2020/12/09 12:18:00;;;;;;;3.08;2.60;;;21.10;32.50;;;;;;5030124;28;20387;-61
2020/12/09 12:20:25;;;;;;;3.20;2.90;;;21.10;32.50;;;;;;5034328;28;20755;-61
2020/12/09 12:22:51;;;;;;;3.15;2.70;;;21.10;32.50;;;;;;5034375;28;20418;-61
2020/12/09 12:25:17;;;;;;;2.92;2.58;;;21.10;32.50;;;;;;5034285;28;20435;-61
2020/12/09 12:27:44;;;;;;;3.53;2.70;;;21.10;32.50;;;;;;5034178;28;20398;-61
2020/12/09 12:30:10;;;;;;;3.13;2.67;;;21.10;32.50;;;;;;5033663;28;20489;-61
2020/12/09 12:32:36;;;;;;;3.10;2.80;;;21.10;32.50;;;;;;5034325;28;20912;-61
2020/12/09 12:35:02;;;;;;;3.08;2.60;;;21.10;32.50;;;;;;5034058;28;20395;-62
2020/12/09 12:37:31;;;;;;;3.45;2.80;;;21.10;32.40;;;;;;5033996;28;20399;-61
2020/12/09 12:39:56;;;;;;;2.90;2.60;;;21.10;32.40;;;;;;5033547;28;20387;-61
2020/12/09 12:42:22;;;;;;;3.20;2.88;;;21.10;32.50;;;;;;5034030;28;20475;-61
2020/12/09 12:44:47;;;;;;;2.87;2.57;;;21.10;32.50;;;;;;5033839;28;20419;-61
2020/12/09 12:47:13;;;;;;;3.05;2.75;;;21.10;32.40;;;;;;5033818;28;20486;-62
2020/12/09 12:49:41;;;;;;;3.13;2.83;;;21.10;32.50;;;;;;5033950;28;20866;-61